sensor_id;sensor_type;location;lat;lon;timestamp;P1;durP1;ratioP1;P2;durP2;ratioP2
62010;SDS011;47967;51.756;10.174;2023-08-17T04:02:57;0.17;;;0.17;;
62010;SDS011;47967;51.756;10.174;2023-08-17T04:07:00;0.00;;;0.00;;
62010;SDS011;47967;51.756;10.174;2023-08-17T04:11:03;0.00;;;0.00;;
62010;SDS011;47967;51.756;10.174;2023-08-17T04:15:06;0.08;;;0.08;;
62010;SDS011;47967;51.756;10.174;2023-08-17T04:19:10;0.00;;;0.00;;
62010;SDS011;47967;51.756;10.174;2023-08-17T04:23:13;0.00;;;0.00;;
62010;SDS011;47967;51.756;10.174;2023-08-17T04:27:16;0.00;;;0.00;;
62010;SDS011;47967;51.756;10.174;2023-08-17T04:35:31;0.00;;;0.00;;
62010;SDS011;47967;51.756;10.174;2023-08-17T04:39:34;0.00;;;0.00;;
62010;SDS011;47967;51.756;10.174;2023-08-17T04:43:37;0.00;;;0.00;;
62010;SDS011;47967;51.756;10.174;2023-08-17T04:47:39;0.00;;;0.00;;
62010;SDS011;47967;51.756;10.174;2023-08-17T04:55:46;0.00;;;0.00;;
62010;SDS011;47967;51.756;10.174;2023-08-17T04:59:49;0.00;;;0.00;;
62010;SDS011;47967;51.756;10.174;2023-08-17T05:03:52;0.00;;;0.00;;
62010;SDS011;47967;51.756;10.174;2023-08-17T05:07:56;0.00;;;0.00;;
62010;SDS011;47967;51.756;10.174;2023-08-17T05:12:00;0.00;;;0.00;;
62010;SDS011;47967;51.756;10.174;2023-08-17T05:16:03;0.00;;;0.00;;
62010;SDS011;47967;51.756;10.174;2023-08-17T05:20:07;0.00;;;0.00;;
62010;SDS011;47967;51.756;10.174;2023-08-17T05:24:11;0.00;;;0.00;;
62010;SDS011;47967;51.756;10.174;2023-08-17T05:28:14;0.00;;;0.00;;
62010;SDS011;47967;51.756;10.174;2023-08-17T05:32:17;0.00;;;0.00;;
62010;SDS011;47967;51.756;10.174;2023-08-17T05:36:23;0.00;;;0.00;;
62010;SDS011;47967;51.756;10.174;2023-08-17T05:40:27;0.00;;;0.00;;
62010;SDS011;47967;51.756;10.174;2023-08-17T05:44:32;0.00;;;0.00;;
62010;SDS011;47967;51.756;10.174;2023-08-17T05:48:34;0.00;;;0.00;;
62010;SDS011;47967;51.756;10.174;2023-08-17T05:52:37;0.00;;;0.00;;
62010;SDS011;47967;51.756;10.174;2023-08-17T05:56:41;0.00;;;0.00;;
62010;SDS011;47967;51.756;10.174;2023-08-17T06:00:47;0.00;;;0.00;;
62010;SDS011;47967;51.756;10.174;2023-08-17T06:04:51;0.00;;;0.00;;
62010;SDS011;47967;51.756;10.174;2023-08-17T06:08:53;0.00;;;0.00;;
62010;SDS011;47967;51.756;10.174;2023-08-17T06:12:57;0.00;;;0.00;;
62010;SDS011;47967;51.756;10.174;2023-08-17T06:17:00;0.00;;;0.00;;
62010;SDS011;47967;51.756;10.174;2023-08-17T06:21:03;0.00;;;0.00;;
62010;SDS011;47967;51.756;10.174;2023-08-17T06:25:06;0.00;;;0.00;;
62010;SDS011;47967;51.756;10.174;2023-08-17T06:29:10;0.00;;;0.00;;
62010;SDS011;47967;51.756;10.174;2023-08-17T06:33:13;0.00;;;0.00;;
62010;SDS011;47967;51.756;10.174;2023-08-17T06:37:16;0.00;;;0.00;;
62010;SDS011;47967;51.756;10.174;2023-08-17T06:41:19;0.00;;;0.00;;
62010;SDS011;47967;51.756;10.174;2023-08-17T06:45:23;0.03;;;0.03;;
62010;SDS011;47967;51.756;10.174;2023-08-17T06:49:26;0.00;;;0.00;;
62010;SDS011;47967;51.756;10.174;2023-08-17T06:57:31;0.00;;;0.00;;
62010;SDS011;47967;51.756;10.174;2023-08-17T07:01:35;0.00;;;0.00;;
62010;SDS011;47967;51.756;10.174;2023-08-17T07:05:38;0.00;;;0.00;;
62010;SDS011;47967;51.756;10.174;2023-08-17T07:09:41;0.00;;;0.00;;
62010;SDS011;47967;51.756;10.174;2023-08-17T07:13:43;0.00;;;0.00;;
62010;SDS011;47967;51.756;10.174;2023-08-17T07:17:47;0.00;;;0.00;;
62010;SDS011;47967;51.756;10.174;2023-08-17T07:21:50;0.00;;;0.00;;
62010;SDS011;47967;51.756;10.174;2023-08-17T07:25:54;0.00;;;0.00;;
62010;SDS011;47967;51.756;10.174;2023-08-17T07:29:57;0.00;;;0.00;;
62010;SDS011;47967;51.756;10.174;2023-08-17T07:34:01;0.00;;;0.00;;
62010;SDS011;47967;51.756;10.174;2023-08-17T07:38:04;0.00;;;0.00;;
62010;SDS011;47967;51.756;10.174;2023-08-17T07:42:10;0.00;;;0.00;;
62010;SDS011;47967;51.756;10.174;2023-08-17T07:46:12;0.00;;;0.00;;
62010;SDS011;47967;51.756;10.174;2023-08-17T07:50:16;0.00;;;0.00;;
62010;SDS011;47967;51.756;10.174;2023-08-17T07:54:19;0.00;;;0.00;;
62010;SDS011;47967;51.756;10.174;2023-08-17T07:58:22;0.00;;;0.00;;
62010;SDS011;47967;51.756;10.174;2023-08-17T08:02:25;0.00;;;0.00;;
62010;SDS011;47967;51.756;10.174;2023-08-17T08:06:29;0.00;;;0.00;;
62010;SDS011;47967;51.756;10.174;2023-08-17T08:10:32;0.00;;;0.00;;
62010;SDS011;47967;51.756;10.174;2023-08-17T08:18:37;0.00;;;0.00;;
62010;SDS011;47967;51.756;10.174;2023-08-17T08:22:41;0.00;;;0.00;;
62010;SDS011;47967;51.756;10.174;2023-08-17T08:26:43;0.00;;;0.00;;
62010;SDS011;47967;51.756;10.174;2023-08-17T08:34:49;0.00;;;0.00;;
62010;SDS011;47967;51.756;10.174;2023-08-17T08:42:56;0.00;;;0.00;;
62010;SDS011;47967;51.756;10.174;2023-08-17T08:46:59;0.00;;;0.00;;
62010;SDS011;47967;51.756;10.174;2023-08-17T08:51:03;0.00;;;0.00;;
62010;SDS011;47967;51.756;10.174;2023-08-17T08:55:13;0.00;;;0.00;;
62010;SDS011;47967;51.756;10.174;2023-08-17T08:59:19;0.00;;;0.00;;
62010;SDS011;47967;51.756;10.174;2023-08-17T09:03:23;0.00;;;0.00;;
62010;SDS011;47967;51.756;10.174;2023-08-17T09:07:27;0.10;;;0.08;;
62010;SDS011;47967;51.756;10.174;2023-08-17T09:11:33;0.00;;;0.00;;
62010;SDS011;47967;51.756;10.174;2023-08-17T09:15:35;0.00;;;0.00;;
62010;SDS011;47967;51.756;10.174;2023-08-17T09:23:43;0.00;;;0.00;;
62010;SDS011;47967;51.756;10.174;2023-08-17T09:31:49;0.00;;;0.00;;
62010;SDS011;47967;51.756;10.174;2023-08-17T09:39:58;0.00;;;0.00;;
62010;SDS011;47967;51.756;10.174;2023-08-17T09:44:03;0.00;;;0.00;;
62010;SDS011;47967;51.756;10.174;2023-08-17T09:48:07;0.00;;;0.00;;
62010;SDS011;47967;51.756;10.174;2023-08-17T09:52:10;0.00;;;0.00;;
62010;SDS011;47967;51.756;10.174;2023-08-17T10:00:20;0.00;;;0.00;;
62010;SDS011;47967;51.756;10.174;2023-08-17T10:04:23;0.00;;;0.00;;
62010;SDS011;47967;51.756;10.174;2023-08-17T10:08:26;0.00;;;0.00;;
62010;SDS011;47967;51.756;10.174;2023-08-17T10:12:33;0.00;;;0.00;;
62010;SDS011;47967;51.756;10.174;2023-08-17T10:16:42;0.00;;;0.00;;
62010;SDS011;47967;51.756;10.174;2023-08-17T10:20:49;0.00;;;0.00;;
62010;SDS011;47967;51.756;10.174;2023-08-17T10:25:01;0.00;;;0.00;;
62010;SDS011;47967;51.756;10.174;2023-08-17T10:29:05;0.00;;;0.00;;
62010;SDS011;47967;51.756;10.174;2023-08-17T10:33:18;0.10;;;0.10;;
62010;SDS011;47967;51.756;10.174;2023-08-17T10:37:21;0.00;;;0.00;;
62010;SDS011;47967;51.756;10.174;2023-08-17T10:41:25;0.10;;;0.10;;
62010;SDS011;47967;51.756;10.174;2023-08-17T10:45:29;0.00;;;0.00;;
62010;SDS011;47967;51.756;10.174;2023-08-17T10:49:34;0.00;;;0.00;;
62010;SDS011;47967;51.756;10.174;2023-08-17T10:53:40;0.00;;;0.00;;
62010;SDS011;47967;51.756;10.174;2023-08-17T10:57:45;0.00;;;0.00;;
62010;SDS011;47967;51.756;10.174;2023-08-17T11:01:48;0.00;;;0.00;;
62010;SDS011;47967;51.756;10.174;2023-08-17T11:05:55;0.00;;;0.00;;
62010;SDS011;47967;51.756;10.174;2023-08-17T11:09:59;0.00;;;0.00;;
62010;SDS011;47967;51.756;10.174;2023-08-17T11:14:03;0.10;;;0.08;;
62010;SDS011;47967;51.756;10.174;2023-08-17T11:18:06;0.00;;;0.00;;
62010;SDS011;47967;51.756;10.174;2023-08-17T11:22:12;0.00;;;0.00;;
62010;SDS011;47967;51.756;10.174;2023-08-17T11:26:15;0.00;;;0.00;;
62010;SDS011;47967;51.756;10.174;2023-08-17T11:30:18;0.20;;;0.20;;
62010;SDS011;47967;51.756;10.174;2023-08-17T11:34:22;0.00;;;0.00;;
62010;SDS011;47967;51.756;10.174;2023-08-17T11:38:27;0.13;;;0.10;;
62010;SDS011;47967;51.756;10.174;2023-08-17T11:42:32;0.05;;;0.05;;
62010;SDS011;47967;51.756;10.174;2023-08-17T11:46:35;0.00;;;0.00;;
62010;SDS011;47967;51.756;10.174;2023-08-17T11:50:38;0.20;;;0.20;;
62010;SDS011;47967;51.756;10.174;2023-08-17T11:54:43;0.00;;;0.00;;
62010;SDS011;47967;51.756;10.174;2023-08-17T11:58:46;0.00;;;0.00;;
62010;SDS011;47967;51.756;10.174;2023-08-17T12:02:49;0.00;;;0.00;;
62010;SDS011;47967;51.756;10.174;2023-08-17T12:06:52;0.00;;;0.00;;
62010;SDS011;47967;51.756;10.174;2023-08-17T12:10:56;0.00;;;0.00;;
62010;SDS011;47967;51.756;10.174;2023-08-17T12:14:59;0.00;;;0.00;;
62010;SDS011;47967;51.756;10.174;2023-08-17T12:19:01;0.00;;;0.00;;
62010;SDS011;47967;51.756;10.174;2023-08-17T12:23:07;0.00;;;0.00;;
62010;SDS011;47967;51.756;10.174;2023-08-17T12:27:11;0.00;;;0.00;;
62010;SDS011;47967;51.756;10.174;2023-08-17T12:31:14;0.00;;;0.00;;
62010;SDS011;47967;51.756;10.174;2023-08-17T12:35:24;0.10;;;0.10;;
62010;SDS011;47967;51.756;10.174;2023-08-17T12:39:27;0.00;;;0.00;;
62010;SDS011;47967;51.756;10.174;2023-08-17T12:43:32;0.00;;;0.00;;
62010;SDS011;47967;51.756;10.174;2023-08-17T12:47:34;0.00;;;0.00;;
62010;SDS011;47967;51.756;10.174;2023-08-17T12:51:37;0.00;;;0.00;;
62010;SDS011;47967;51.756;10.174;2023-08-17T12:55:46;0.00;;;0.00;;
62010;SDS011;47967;51.756;10.174;2023-08-17T12:59:51;0.00;;;0.00;;
62010;SDS011;47967;51.756;10.174;2023-08-17T13:03:53;0.00;;;0.00;;
62010;SDS011;47967;51.756;10.174;2023-08-17T13:07:56;0.00;;;0.00;;
62010;SDS011;47967;51.756;10.174;2023-08-17T13:11:59;0.20;;;0.20;;
62010;SDS011;47967;51.756;10.174;2023-08-17T13:16:03;0.00;;;0.00;;
62010;SDS011;47967;51.756;10.174;2023-08-17T13:20:07;0.00;;;0.00;;
62010;SDS011;47967;51.756;10.174;2023-08-17T13:24:12;0.00;;;0.00;;
62010;SDS011;47967;51.756;10.174;2023-08-17T13:28:15;0.00;;;0.00;;
62010;SDS011;47967;51.756;10.174;2023-08-17T13:32:18;0.00;;;0.00;;
62010;SDS011;47967;51.756;10.174;2023-08-17T13:36:21;0.15;;;0.15;;
62010;SDS011;47967;51.756;10.174;2023-08-17T13:40:24;0.20;;;0.20;;
62010;SDS011;47967;51.756;10.174;2023-08-17T13:44:27;0.35;;;0.30;;
62010;SDS011;47967;51.756;10.174;2023-08-17T13:48:31;0.00;;;0.00;;
62010;SDS011;47967;51.756;10.174;2023-08-17T13:52:34;0.20;;;0.20;;
62010;SDS011;47967;51.756;10.174;2023-08-17T13:56:36;0.00;;;0.00;;
62010;SDS011;47967;51.756;10.174;2023-08-17T14:00:39;0.10;;;0.10;;
62010;SDS011;47967;51.756;10.174;2023-08-17T14:04:43;0.35;;;0.35;;
62010;SDS011;47967;51.756;10.174;2023-08-17T14:08:46;0.10;;;0.10;;
62010;SDS011;47967;51.756;10.174;2023-08-17T14:12:48;0.55;;;0.50;;
62010;SDS011;47967;51.756;10.174;2023-08-17T14:16:51;0.13;;;0.13;;
62010;SDS011;47967;51.756;10.174;2023-08-17T14:20:55;0.88;;;0.40;;
62010;SDS011;47967;51.756;10.174;2023-08-17T14:24:58;1.45;;;0.63;;
62010;SDS011;47967;51.756;10.174;2023-08-17T14:29:01;0.98;;;0.30;;
62010;SDS011;47967;51.756;10.174;2023-08-17T14:33:04;0.43;;;0.43;;
62010;SDS011;47967;51.756;10.174;2023-08-17T14:37:08;0.25;;;0.25;;
62010;SDS011;47967;51.756;10.174;2023-08-17T14:41:11;0.77;;;0.65;;
62010;SDS011;47967;51.756;10.174;2023-08-17T14:45:14;0.60;;;0.60;;
62010;SDS011;47967;51.756;10.174;2023-08-17T14:49:17;0.45;;;0.45;;
62010;SDS011;47967;51.756;10.174;2023-08-17T14:53:27;0.47;;;0.47;;
62010;SDS011;47967;51.756;10.174;2023-08-17T14:57:30;0.50;;;0.50;;
62010;SDS011;47967;51.756;10.174;2023-08-17T15:05:35;0.43;;;0.43;;
62010;SDS011;47967;51.756;10.174;2023-08-17T15:09:40;1.00;;;0.85;;
62010;SDS011;47967;51.756;10.174;2023-08-17T15:13:43;0.43;;;0.43;;
62010;SDS011;47967;51.756;10.174;2023-08-17T15:17:46;0.88;;;0.80;;
62010;SDS011;47967;51.756;10.174;2023-08-17T15:25:52;1.30;;;0.80;;
62010;SDS011;47967;51.756;10.174;2023-08-17T15:29:55;0.15;;;0.15;;
62010;SDS011;47967;51.756;10.174;2023-08-17T15:38:00;1.10;;;0.40;;
62010;SDS011;47967;51.756;10.174;2023-08-17T15:42:04;0.35;;;0.35;;
62010;SDS011;47967;51.756;10.174;2023-08-17T15:46:07;0.38;;;0.20;;
62010;SDS011;47967;51.756;10.174;2023-08-17T15:54:13;0.20;;;0.20;;
62010;SDS011;47967;51.756;10.174;2023-08-17T15:58:37;0.45;;;0.45;;
62010;SDS011;47967;51.756;10.174;2023-08-17T16:02:39;0.32;;;0.22;;
62010;SDS011;47967;51.756;10.174;2023-08-17T16:06:42;1.63;;;1.05;;
62010;SDS011;47967;51.756;10.174;2023-08-17T16:10:45;0.63;;;0.63;;
62010;SDS011;47967;51.756;10.174;2023-08-17T16:14:51;0.80;;;0.47;;
62010;SDS011;47967;51.756;10.174;2023-08-17T16:18:53;1.10;;;1.00;;
62010;SDS011;47967;51.756;10.174;2023-08-17T16:22:56;1.88;;;0.50;;
62010;SDS011;47967;51.756;10.174;2023-08-17T16:26:59;0.20;;;0.20;;
62010;SDS011;47967;51.756;10.174;2023-08-17T16:31:03;0.65;;;0.47;;
62010;SDS011;47967;51.756;10.174;2023-08-17T16:35:06;2.17;;;0.50;;
62010;SDS011;47967;51.756;10.174;2023-08-17T16:39:09;1.08;;;0.50;;
62010;SDS011;47967;51.756;10.174;2023-08-17T16:43:14;1.10;;;0.30;;
62010;SDS011;47967;51.756;10.174;2023-08-17T16:47:18;0.55;;;0.47;;
62010;SDS011;47967;51.756;10.174;2023-08-17T16:51:21;0.45;;;0.20;;
62010;SDS011;47967;51.756;10.174;2023-08-17T16:55:25;0.28;;;0.28;;
62010;SDS011;47967;51.756;10.174;2023-08-17T16:59:27;0.10;;;0.10;;
62010;SDS011;47967;51.756;10.174;2023-08-17T17:03:31;0.20;;;0.20;;
62010;SDS011;47967;51.756;10.174;2023-08-17T17:07:34;0.32;;;0.32;;
62010;SDS011;47967;51.756;10.174;2023-08-17T17:11:37;0.47;;;0.47;;
62010;SDS011;47967;51.756;10.174;2023-08-17T17:15:39;5.82;;;0.43;;
62010;SDS011;47967;51.756;10.174;2023-08-17T17:19:44;0.32;;;0.32;;
62010;SDS011;47967;51.756;10.174;2023-08-17T17:23:48;0.88;;;0.85;;
62010;SDS011;47967;51.756;10.174;2023-08-17T17:27:51;0.20;;;0.20;;
62010;SDS011;47967;51.756;10.174;2023-08-17T17:31:54;1.13;;;0.60;;
62010;SDS011;47967;51.756;10.174;2023-08-17T17:35:58;1.05;;;0.30;;
62010;SDS011;47967;51.756;10.174;2023-08-17T17:40:01;0.50;;;0.50;;
62010;SDS011;47967;51.756;10.174;2023-08-17T17:44:04;0.10;;;0.10;;
62010;SDS011;47967;51.756;10.174;2023-08-17T17:48:07;0.88;;;0.25;;
62010;SDS011;47967;51.756;10.174;2023-08-17T17:56:13;0.20;;;0.20;;
62010;SDS011;47967;51.756;10.174;2023-08-17T18:00:16;0.65;;;0.40;;
62010;SDS011;47967;51.756;10.174;2023-08-17T18:08:23;0.10;;;0.10;;
62010;SDS011;47967;51.756;10.174;2023-08-17T18:12:25;0.20;;;0.20;;
62010;SDS011;47967;51.756;10.174;2023-08-17T18:16:30;0.00;;;0.00;;
62010;SDS011;47967;51.756;10.174;2023-08-17T18:20:33;0.10;;;0.10;;
62010;SDS011;47967;51.756;10.174;2023-08-17T18:24:37;0.80;;;0.20;;
62010;SDS011;47967;51.756;10.174;2023-08-17T18:28:40;0.25;;;0.25;;
62010;SDS011;47967;51.756;10.174;2023-08-17T18:32:42;0.10;;;0.10;;
62010;SDS011;47967;51.756;10.174;2023-08-17T18:36:45;0.00;;;0.00;;
62010;SDS011;47967;51.756;10.174;2023-08-17T18:40:49;0.57;;;0.57;;
62010;SDS011;47967;51.756;10.174;2023-08-17T18:44:54;0.43;;;0.30;;
62010;SDS011;47967;51.756;10.174;2023-08-17T18:48:57;0.10;;;0.10;;
62010;SDS011;47967;51.756;10.174;2023-08-17T18:53:00;0.20;;;0.20;;
62010;SDS011;47967;51.756;10.174;2023-08-17T18:57:05;0.00;;;0.00;;
62010;SDS011;47967;51.756;10.174;2023-08-17T19:01:08;0.00;;;0.00;;
62010;SDS011;47967;51.756;10.174;2023-08-17T19:05:11;0.10;;;0.10;;
62010;SDS011;47967;51.756;10.174;2023-08-17T19:09:14;0.10;;;0.10;;
62010;SDS011;47967;51.756;10.174;2023-08-17T19:13:18;0.25;;;0.25;;
62010;SDS011;47967;51.756;10.174;2023-08-17T19:17:20;0.00;;;0.00;;
62010;SDS011;47967;51.756;10.174;2023-08-17T19:21:23;0.20;;;0.20;;
62010;SDS011;47967;51.756;10.174;2023-08-17T19:25:26;2.00;;;0.22;;
62010;SDS011;47967;51.756;10.174;2023-08-17T19:29:30;0.35;;;0.20;;
62010;SDS011;47967;51.756;10.174;2023-08-17T19:33:33;0.38;;;0.38;;
62010;SDS011;47967;51.756;10.174;2023-08-17T19:37:36;0.52;;;0.22;;
62010;SDS011;47967;51.756;10.174;2023-08-17T19:41:39;0.52;;;0.20;;
62010;SDS011;47967;51.756;10.174;2023-08-17T19:45:44;0.00;;;0.00;;
62010;SDS011;47967;51.756;10.174;2023-08-17T19:49:47;0.00;;;0.00;;
62010;SDS011;47967;51.756;10.174;2023-08-17T19:53:50;0.47;;;0.38;;
62010;SDS011;47967;51.756;10.174;2023-08-17T19:57:52;0.00;;;0.00;;
62010;SDS011;47967;51.756;10.174;2023-08-17T20:01:56;0.00;;;0.00;;
62010;SDS011;47967;51.756;10.174;2023-08-17T20:05:59;0.57;;;0.20;;
62010;SDS011;47967;51.756;10.174;2023-08-17T20:10:03;2.05;;;0.08;;
62010;SDS011;47967;51.756;10.174;2023-08-17T20:14:06;0.00;;;0.00;;
62010;SDS011;47967;51.756;10.174;2023-08-17T20:18:10;0.00;;;0.00;;
62010;SDS011;47967;51.756;10.174;2023-08-17T20:22:14;0.00;;;0.00;;
62010;SDS011;47967;51.756;10.174;2023-08-17T20:26:17;0.00;;;0.00;;
62010;SDS011;47967;51.756;10.174;2023-08-17T20:30:20;2.20;;;0.20;;
62010;SDS011;47967;51.756;10.174;2023-08-17T20:34:24;0.03;;;0.03;;
62010;SDS011;47967;51.756;10.174;2023-08-17T20:38:27;0.00;;;0.00;;
62010;SDS011;47967;51.756;10.174;2023-08-17T20:42:30;4.25;;;0.90;;
62010;SDS011;47967;51.756;10.174;2023-08-17T20:46:33;1.23;;;0.68;;
62010;SDS011;47967;51.756;10.174;2023-08-17T20:50:37;0.15;;;0.15;;
62010;SDS011;47967;51.756;10.174;2023-08-17T20:54:40;0.80;;;0.20;;
62010;SDS011;47967;51.756;10.174;2023-08-17T20:58:43;0.00;;;0.00;;
